sensor_id;sensor_type;location;lat;lon;timestamp;pressure;altitude;pressure_sealevel;temperature;humidity
13869;BME280;7004;48.206;16.402;2023-01-31T00:01:35;99652.81;;;5.66;68.09
13869;BME280;7004;48.206;16.402;2023-01-31T00:04:05;99652.66;;;5.69;68.46
13869;BME280;7004;48.206;16.402;2023-01-31T00:06:38;99658.00;;;5.47;68.54
13869;BME280;7004;48.206;16.402;2023-01-31T00:09:06;99655.91;;;5.55;69.33
13869;BME280;7004;48.206;16.402;2023-01-31T00:11:36;99649.88;;;5.33;70.55
13869;BME280;7004;48.206;16.402;2023-01-31T00:14:05;99664.97;;;5.28;71.80
13869;BME280;7004;48.206;16.402;2023-01-31T00:16:33;99669.75;;;5.38;71.21
13869;BME280;7004;48.206;16.402;2023-01-31T00:19:02;99671.84;;;5.51;71.24
13869;BME280;7004;48.206;16.402;2023-01-31T00:21:30;99669.22;;;5.51;70.97
13869;BME280;7004;48.206;16.402;2023-01-31T00:23:58;99671.09;;;5.67;70.33
13869;BME280;7004;48.206;16.402;2023-01-31T00:26:29;99671.09;;;5.47;71.20
13869;BME280;7004;48.206;16.402;2023-01-31T00:28:58;99691.69;;;5.56;72.02
13869;BME280;7004;48.206;16.402;2023-01-31T00:31:26;99685.59;;;5.56;72.37
13869;BME280;7004;48.206;16.402;2023-01-31T00:33:54;99676.53;;;5.63;71.57
13869;BME280;7004;48.206;16.402;2023-01-31T00:36:31;99692.34;;;5.41;72.77
13869;BME280;7004;48.206;16.402;2023-01-31T00:38:59;99681.22;;;5.36;73.45
13869;BME280;7004;48.206;16.402;2023-01-31T00:41:28;99672.41;;;5.37;73.98
13869;BME280;7004;48.206;16.402;2023-01-31T00:43:54;99676.56;;;5.42;73.48
13869;BME280;7004;48.206;16.402;2023-01-31T00:46:21;99684.88;;;5.52;73.79
13869;BME280;7004;48.206;16.402;2023-01-31T00:48:49;99681.19;;;5.56;73.27
13869;BME280;7004;48.206;16.402;2023-01-31T00:51:15;99678.06;;;5.87;71.86
13869;BME280;7004;48.206;16.402;2023-01-31T00:53:42;99682.09;;;5.76;72.46
13869;BME280;7004;48.206;16.402;2023-01-31T00:56:17;99676.31;;;5.88;71.81
13869;BME280;7004;48.206;16.402;2023-01-31T00:58:44;99672.34;;;5.59;72.61
13869;BME280;7004;48.206;16.402;2023-01-31T01:01:26;99675.34;;;5.70;72.29
13869;BME280;7004;48.206;16.402;2023-01-31T01:03:55;99681.91;;;5.39;72.71
13869;BME280;7004;48.206;16.402;2023-01-31T01:06:22;99681.41;;;5.52;71.08
13869;BME280;7004;48.206;16.402;2023-01-31T01:08:48;99693.84;;;5.67;71.16
13869;BME280;7004;48.206;16.402;2023-01-31T01:11:21;99695.94;;;5.79;71.46
13869;BME280;7004;48.206;16.402;2023-01-31T01:13:47;99696.28;;;5.72;71.06
13869;BME280;7004;48.206;16.402;2023-01-31T01:16:20;99695.28;;;5.54;70.92
13869;BME280;7004;48.206;16.402;2023-01-31T01:18:47;99687.56;;;5.51;71.28
13869;BME280;7004;48.206;16.402;2023-01-31T01:21:22;99685.53;;;5.57;70.50
13869;BME280;7004;48.206;16.402;2023-01-31T01:23:50;99688.22;;;5.56;71.14
13869;BME280;7004;48.206;16.402;2023-01-31T01:26:24;99688.38;;;5.53;70.11
13869;BME280;7004;48.206;16.402;2023-01-31T01:28:52;99691.41;;;5.42;70.29
13869;BME280;7004;48.206;16.402;2023-01-31T01:31:21;99690.47;;;5.24;71.22
13869;BME280;7004;48.206;16.402;2023-01-31T01:33:59;99679.69;;;5.51;69.28
13869;BME280;7004;48.206;16.402;2023-01-31T01:36:26;99680.69;;;5.87;68.08
13869;BME280;7004;48.206;16.402;2023-01-31T01:38:53;99689.63;;;5.63;69.90
13869;BME280;7004;48.206;16.402;2023-01-31T01:41:20;99690.56;;;5.41;70.07
13869;BME280;7004;48.206;16.402;2023-01-31T01:43:57;99670.28;;;5.65;68.98
13869;BME280;7004;48.206;16.402;2023-01-31T01:46:38;99668.09;;;5.36;69.82
13869;BME280;7004;48.206;16.402;2023-01-31T01:49:31;99675.03;;;5.57;69.47
13869;BME280;7004;48.206;16.402;2023-01-31T01:52:03;99692.22;;;5.44;69.33
13869;BME280;7004;48.206;16.402;2023-01-31T01:54:45;99692.28;;;5.42;69.33
13869;BME280;7004;48.206;16.402;2023-01-31T01:57:16;99687.94;;;5.41;68.29
13869;BME280;7004;48.206;16.402;2023-01-31T01:59:51;99696.22;;;5.53;68.35
13869;BME280;7004;48.206;16.402;2023-01-31T02:02:20;99707.44;;;5.56;67.86
13869;BME280;7004;48.206;16.402;2023-01-31T02:04:47;99709.31;;;5.32;69.46
13869;BME280;7004;48.206;16.402;2023-01-31T02:07:15;99700.72;;;5.49;69.03
13869;BME280;7004;48.206;16.402;2023-01-31T02:10:08;99708.59;;;5.29;70.17
13869;BME280;7004;48.206;16.402;2023-01-31T02:12:38;99716.75;;;5.63;71.00
13869;BME280;7004;48.206;16.402;2023-01-31T02:15:05;99720.00;;;5.28;73.97
13869;BME280;7004;48.206;16.402;2023-01-31T02:17:31;99721.16;;;5.20;75.25
13869;BME280;7004;48.206;16.402;2023-01-31T02:20:44;99723.00;;;5.18;76.64
13869;BME280;7004;48.206;16.402;2023-01-31T02:27:22;99720.91;;;5.47;74.83
13869;BME280;7004;48.206;16.402;2023-01-31T02:30:06;99716.94;;;5.59;74.68
13869;BME280;7004;48.206;16.402;2023-01-31T02:36:25;99726.75;;;5.33;74.96
13869;BME280;7004;48.206;16.402;2023-01-31T02:48:18;99717.69;;;5.20;76.43
13869;BME280;7004;48.206;16.402;2023-01-31T02:51:11;99708.81;;;5.24;76.04
13869;BME280;7004;48.206;16.402;2023-01-31T02:53:56;99705.56;;;5.17;75.70
13869;BME280;7004;48.206;16.402;2023-01-31T02:56:29;99710.47;;;5.04;76.12
13869;BME280;7004;48.206;16.402;2023-01-31T02:59:22;99722.72;;;5.04;74.51
13869;BME280;7004;48.206;16.402;2023-01-31T03:02:01;99720.66;;;5.33;74.39
13869;BME280;7004;48.206;16.402;2023-01-31T03:04:31;99712.59;;;5.37;72.14
13869;BME280;7004;48.206;16.402;2023-01-31T03:07:12;99725.06;;;5.32;72.72
13869;BME280;7004;48.206;16.402;2023-01-31T03:10:04;99733.69;;;5.14;73.31
13869;BME280;7004;48.206;16.402;2023-01-31T03:19:21;99745.63;;;5.62;69.96
13869;BME280;7004;48.206;16.402;2023-01-31T03:22:00;99755.66;;;5.52;69.62
13869;BME280;7004;48.206;16.402;2023-01-31T03:24:31;99752.47;;;5.66;68.99
13869;BME280;7004;48.206;16.402;2023-01-31T03:26:59;99767.03;;;5.53;69.32
13869;BME280;7004;48.206;16.402;2023-01-31T03:29:28;99776.38;;;5.38;69.91
13869;BME280;7004;48.206;16.402;2023-01-31T03:32:17;99769.66;;;5.31;69.33
13869;BME280;7004;48.206;16.402;2023-01-31T03:34:45;99782.88;;;5.70;68.35
13869;BME280;7004;48.206;16.402;2023-01-31T03:43:14;99773.03;;;5.75;68.35
13869;BME280;7004;48.206;16.402;2023-01-31T03:45:53;99769.25;;;5.82;68.27
13869;BME280;7004;48.206;16.402;2023-01-31T03:48:29;99778.59;;;5.47;67.46
13869;BME280;7004;48.206;16.402;2023-01-31T03:50:59;99775.53;;;5.37;68.02
13869;BME280;7004;48.206;16.402;2023-01-31T03:53:42;99784.84;;;5.65;67.68
13869;BME280;7004;48.206;16.402;2023-01-31T03:56:41;99782.28;;;5.43;67.02
13869;BME280;7004;48.206;16.402;2023-01-31T03:59:24;99800.81;;;5.38;66.67
13869;BME280;7004;48.206;16.402;2023-01-31T04:01:55;99782.53;;;5.57;65.39
13869;BME280;7004;48.206;16.402;2023-01-31T04:04:30;99787.97;;;5.95;64.78
13869;BME280;7004;48.206;16.402;2023-01-31T04:07:00;99801.91;;;5.75;65.19
13869;BME280;7004;48.206;16.402;2023-01-31T04:09:27;99815.81;;;5.77;64.57
13869;BME280;7004;48.206;16.402;2023-01-31T04:11:53;99800.38;;;5.49;65.36
13869;BME280;7004;48.206;16.402;2023-01-31T04:14:19;99799.41;;;5.94;63.88
13869;BME280;7004;48.206;16.402;2023-01-31T04:16:45;99803.28;;;5.84;64.30
13869;BME280;7004;48.206;16.402;2023-01-31T04:19:11;99810.25;;;6.05;63.49
13869;BME280;7004;48.206;16.402;2023-01-31T04:21:37;99813.06;;;6.21;61.80
13869;BME280;7004;48.206;16.402;2023-01-31T04:24:04;99810.00;;;6.11;62.73
13869;BME280;7004;48.206;16.402;2023-01-31T04:26:30;99809.34;;;6.06;62.89
13869;BME280;7004;48.206;16.402;2023-01-31T04:28:56;99802.16;;;5.69;62.83
13869;BME280;7004;48.206;16.402;2023-01-31T04:31:23;99807.44;;;6.30;61.25
13869;BME280;7004;48.206;16.402;2023-01-31T04:33:49;99802.38;;;5.85;62.33
13869;BME280;7004;48.206;16.402;2023-01-31T04:36:15;99802.63;;;6.20;61.67
13869;BME280;7004;48.206;16.402;2023-01-31T04:38:41;99804.16;;;6.05;61.45
13869;BME280;7004;48.206;16.402;2023-01-31T04:41:07;99818.38;;;5.99;62.54
13869;BME280;7004;48.206;16.402;2023-01-31T04:43:33;99809.47;;;6.24;61.77
13869;BME280;7004;48.206;16.402;2023-01-31T04:46:00;99808.47;;;5.85;62.02
13869;BME280;7004;48.206;16.402;2023-01-31T04:48:26;99806.75;;;5.84;62.54
13869;BME280;7004;48.206;16.402;2023-01-31T04:50:52;99804.56;;;5.96;62.74
13869;BME280;7004;48.206;16.402;2023-01-31T04:53:18;99803.16;;;5.87;63.09
13869;BME280;7004;48.206;16.402;2023-01-31T04:55:47;99813.84;;;5.82;63.45
13869;BME280;7004;48.206;16.402;2023-01-31T04:58:13;99829.25;;;5.69;63.63
13869;BME280;7004;48.206;16.402;2023-01-31T05:00:39;99811.81;;;5.68;64.79
13869;BME280;7004;48.206;16.402;2023-01-31T05:03:05;99812.56;;;5.70;64.52
13869;BME280;7004;48.206;16.402;2023-01-31T05:05:32;99813.47;;;5.91;63.61
13869;BME280;7004;48.206;16.402;2023-01-31T05:07:58;99814.78;;;6.02;63.81
13869;BME280;7004;48.206;16.402;2023-01-31T05:10:24;99804.28;;;5.81;64.42
13869;BME280;7004;48.206;16.402;2023-01-31T05:12:50;99828.97;;;5.55;63.97
13869;BME280;7004;48.206;16.402;2023-01-31T05:15:17;99804.28;;;5.81;63.07
13869;BME280;7004;48.206;16.402;2023-01-31T05:17:43;99814.16;;;5.97;62.60
13869;BME280;7004;48.206;16.402;2023-01-31T05:20:10;99812.38;;;5.75;62.96
13869;BME280;7004;48.206;16.402;2023-01-31T05:22:36;99809.97;;;5.91;61.87
13869;BME280;7004;48.206;16.402;2023-01-31T05:25:03;99803.34;;;5.62;62.67
13869;BME280;7004;48.206;16.402;2023-01-31T05:27:30;99833.13;;;5.39;63.67
13869;BME280;7004;48.206;16.402;2023-01-31T05:29:56;99804.34;;;5.80;62.09
13869;BME280;7004;48.206;16.402;2023-01-31T05:32:22;99816.63;;;5.57;62.55
13869;BME280;7004;48.206;16.402;2023-01-31T05:34:48;99809.75;;;5.55;62.38
13869;BME280;7004;48.206;16.402;2023-01-31T05:37:14;99823.81;;;5.52;62.07
13869;BME280;7004;48.206;16.402;2023-01-31T05:39:40;99836.31;;;5.67;60.92
13869;BME280;7004;48.206;16.402;2023-01-31T05:42:06;99829.69;;;5.59;60.16
13869;BME280;7004;48.206;16.402;2023-01-31T05:44:32;99856.88;;;5.56;60.16
13869;BME280;7004;48.206;16.402;2023-01-31T05:46:58;99833.28;;;5.56;59.52
13869;BME280;7004;48.206;16.402;2023-01-31T05:49:25;99856.97;;;5.75;58.96
13869;BME280;7004;48.206;16.402;2023-01-31T05:51:52;99872.66;;;5.77;59.12
13869;BME280;7004;48.206;16.402;2023-01-31T05:54:18;99870.09;;;5.97;58.48
13869;BME280;7004;48.206;16.402;2023-01-31T05:56:44;99893.66;;;5.55;60.36
13869;BME280;7004;48.206;16.402;2023-01-31T05:59:10;99885.34;;;5.87;59.11
13869;BME280;7004;48.206;16.402;2023-01-31T06:01:36;99894.31;;;5.60;60.25
13869;BME280;7004;48.206;16.402;2023-01-31T06:04:02;99882.91;;;5.83;59.51
13869;BME280;7004;48.206;16.402;2023-01-31T06:06:28;99901.88;;;5.67;60.43
13869;BME280;7004;48.206;16.402;2023-01-31T06:08:54;99899.22;;;5.69;60.14
13869;BME280;7004;48.206;16.402;2023-01-31T06:11:21;99892.63;;;5.59;59.94
13869;BME280;7004;48.206;16.402;2023-01-31T06:13:47;99914.44;;;5.59;59.72
13869;BME280;7004;48.206;16.402;2023-01-31T06:16:14;99901.31;;;6.03;58.35
13869;BME280;7004;48.206;16.402;2023-01-31T06:18:40;99907.56;;;5.79;59.37
13869;BME280;7004;48.206;16.402;2023-01-31T06:21:06;99932.50;;;5.89;59.21
13869;BME280;7004;48.206;16.402;2023-01-31T06:23:33;99929.25;;;5.82;59.78
13869;BME280;7004;48.206;16.402;2023-01-31T06:25:59;99932.47;;;5.68;59.37
13869;BME280;7004;48.206;16.402;2023-01-31T06:28:25;99935.31;;;5.62;59.66
13869;BME280;7004;48.206;16.402;2023-01-31T06:30:51;99943.00;;;5.89;58.93
13869;BME280;7004;48.206;16.402;2023-01-31T06:33:17;99947.88;;;5.98;59.54
13869;BME280;7004;48.206;16.402;2023-01-31T06:35:44;99948.69;;;6.00;59.34
13869;BME280;7004;48.206;16.402;2023-01-31T06:38:10;99951.78;;;5.66;60.10
13869;BME280;7004;48.206;16.402;2023-01-31T06:40:38;99960.28;;;5.95;59.38
13869;BME280;7004;48.206;16.402;2023-01-31T06:43:04;99951.22;;;6.24;59.32
13869;BME280;7004;48.206;16.402;2023-01-31T06:45:30;99960.41;;;5.91;59.46
13869;BME280;7004;48.206;16.402;2023-01-31T06:47:56;99958.97;;;6.47;57.90
13869;BME280;7004;48.206;16.402;2023-01-31T06:50:22;99976.75;;;6.20;59.23
13869;BME280;7004;48.206;16.402;2023-01-31T06:52:48;99975.81;;;6.21;59.72
13869;BME280;7004;48.206;16.402;2023-01-31T06:55:14;99976.56;;;6.03;60.14
13869;BME280;7004;48.206;16.402;2023-01-31T06:57:47;99991.06;;;6.33;59.55
13869;BME280;7004;48.206;16.402;2023-01-31T07:00:14;99993.28;;;6.43;59.42
13869;BME280;7004;48.206;16.402;2023-01-31T07:02:41;99997.03;;;5.95;59.77
13869;BME280;7004;48.206;16.402;2023-01-31T07:05:07;100001.34;;;6.18;60.28
13869;BME280;7004;48.206;16.402;2023-01-31T07:07:33;100004.66;;;6.64;58.85
13869;BME280;7004;48.206;16.402;2023-01-31T07:09:59;100008.47;;;6.14;59.99
13869;BME280;7004;48.206;16.402;2023-01-31T07:12:26;100006.97;;;5.63;60.49
13869;BME280;7004;48.206;16.402;2023-01-31T07:14:53;100011.72;;;5.99;59.83
13869;BME280;7004;48.206;16.402;2023-01-31T07:17:19;100020.59;;;5.73;59.92
13869;BME280;7004;48.206;16.402;2023-01-31T07:19:46;100018.81;;;5.73;59.02
13869;BME280;7004;48.206;16.402;2023-01-31T07:22:12;100020.38;;;5.79;56.71
13869;BME280;7004;48.206;16.402;2023-01-31T07:24:38;100015.81;;;6.28;55.24
13869;BME280;7004;48.206;16.402;2023-01-31T07:27:04;100023.31;;;6.15;56.29
13869;BME280;7004;48.206;16.402;2023-01-31T07:29:30;100031.78;;;6.22;55.42
13869;BME280;7004;48.206;16.402;2023-01-31T07:31:57;100018.16;;;6.34;55.98
13869;BME280;7004;48.206;16.402;2023-01-31T07:34:23;100024.88;;;6.41;55.67
13869;BME280;7004;48.206;16.402;2023-01-31T07:36:50;100042.41;;;6.19;56.78
13869;BME280;7004;48.206;16.402;2023-01-31T07:39:17;100035.66;;;6.13;54.92
13869;BME280;7004;48.206;16.402;2023-01-31T07:41:43;100032.56;;;6.66;55.03
13869;BME280;7004;48.206;16.402;2023-01-31T07:44:09;100029.78;;;6.28;55.29
13869;BME280;7004;48.206;16.402;2023-01-31T07:46:35;100038.88;;;6.62;54.62
13869;BME280;7004;48.206;16.402;2023-01-31T07:49:02;100048.09;;;6.30;54.59
13869;BME280;7004;48.206;16.402;2023-01-31T07:51:28;100054.53;;;6.65;54.60
13869;BME280;7004;48.206;16.402;2023-01-31T07:53:55;100044.91;;;6.44;53.32
13869;BME280;7004;48.206;16.402;2023-01-31T07:56:21;100051.47;;;6.74;53.52
13869;BME280;7004;48.206;16.402;2023-01-31T07:58:49;100049.41;;;6.83;53.10
13869;BME280;7004;48.206;16.402;2023-01-31T08:01:18;100059.78;;;6.65;52.74
13869;BME280;7004;48.206;16.402;2023-01-31T08:04:05;100055.41;;;7.26;50.13
13869;BME280;7004;48.206;16.402;2023-01-31T08:06:31;100059.69;;;6.87;50.42
13869;BME280;7004;48.206;16.402;2023-01-31T08:08:58;100045.97;;;6.60;50.52
13869;BME280;7004;48.206;16.402;2023-01-31T08:11:28;100063.31;;;6.64;51.04
13869;BME280;7004;48.206;16.402;2023-01-31T08:13:54;100052.41;;;6.94;50.44
13869;BME280;7004;48.206;16.402;2023-01-31T08:16:20;100055.22;;;6.69;50.83
13869;BME280;7004;48.206;16.402;2023-01-31T08:18:47;100071.41;;;6.80;49.91
13869;BME280;7004;48.206;16.402;2023-01-31T08:21:14;100074.41;;;6.28;50.35
13869;BME280;7004;48.206;16.402;2023-01-31T08:23:42;100078.78;;;6.50;49.43
13869;BME280;7004;48.206;16.402;2023-01-31T08:26:17;100091.44;;;6.40;50.31
13869;BME280;7004;48.206;16.402;2023-01-31T08:28:45;100082.88;;;6.35;50.13
13869;BME280;7004;48.206;16.402;2023-01-31T08:31:21;100066.16;;;6.38;49.19
13869;BME280;7004;48.206;16.402;2023-01-31T08:33:48;100082.56;;;6.43;49.81
13869;BME280;7004;48.206;16.402;2023-01-31T08:36:29;100103.00;;;6.36;49.68
13869;BME280;7004;48.206;16.402;2023-01-31T08:38:59;100107.81;;;6.47;49.70
13869;BME280;7004;48.206;16.402;2023-01-31T08:41:27;100114.09;;;6.43;50.17
13869;BME280;7004;48.206;16.402;2023-01-31T08:43:54;100114.28;;;6.60;49.83
13869;BME280;7004;48.206;16.402;2023-01-31T08:46:28;100105.06;;;6.50;50.84
13869;BME280;7004;48.206;16.402;2023-01-31T08:48:55;100109.19;;;6.55;50.67
13869;BME280;7004;48.206;16.402;2023-01-31T08:51:22;100111.72;;;6.79;50.65
13869;BME280;7004;48.206;16.402;2023-01-31T08:53:48;100125.72;;;6.59;51.19
13869;BME280;7004;48.206;16.402;2023-01-31T08:56:15;100129.03;;;6.41;50.97
13869;BME280;7004;48.206;16.402;2023-01-31T08:58:43;100139.19;;;6.50;50.83
13869;BME280;7004;48.206;16.402;2023-01-31T09:01:13;100121.91;;;6.44;51.61
13869;BME280;7004;48.206;16.402;2023-01-31T09:03:39;100137.66;;;6.44;51.87
13869;BME280;7004;48.206;16.402;2023-01-31T09:06:11;100124.91;;;6.35;51.76
13869;BME280;7004;48.206;16.402;2023-01-31T09:08:38;100143.41;;;6.54;52.91
13869;BME280;7004;48.206;16.402;2023-01-31T09:11:04;100145.78;;;6.16;55.79
13869;BME280;7004;48.206;16.402;2023-01-31T09:13:31;100142.13;;;6.20;57.02
13869;BME280;7004;48.206;16.402;2023-01-31T09:16:04;100142.38;;;6.36;57.99
13869;BME280;7004;48.206;16.402;2023-01-31T09:18:33;100150.09;;;6.17;58.94
13869;BME280;7004;48.206;16.402;2023-01-31T09:21:19;100160.28;;;6.25;60.12
13869;BME280;7004;48.206;16.402;2023-01-31T09:23:47;100165.16;;;6.36;60.82
13869;BME280;7004;48.206;16.402;2023-01-31T09:26:15;100166.22;;;6.30;61.94
13869;BME280;7004;48.206;16.402;2023-01-31T09:28:41;100169.53;;;6.13;62.64
13869;BME280;7004;48.206;16.402;2023-01-31T09:31:14;100157.91;;;5.97;62.65
13869;BME280;7004;48.206;16.402;2023-01-31T09:33:41;100172.94;;;5.91;63.84
13869;BME280;7004;48.206;16.402;2023-01-31T09:36:12;100176.50;;;5.89;64.24
13869;BME280;7004;48.206;16.402;2023-01-31T09:38:38;100161.75;;;5.86;64.51
13869;BME280;7004;48.206;16.402;2023-01-31T09:41:40;100170.34;;;5.66;65.24
13869;BME280;7004;48.206;16.402;2023-01-31T09:44:20;100171.72;;;5.77;64.54
13869;BME280;7004;48.206;16.402;2023-01-31T09:46:56;100182.91;;;5.57;64.19
13869;BME280;7004;48.206;16.402;2023-01-31T09:49:31;100176.00;;;5.79;64.36
13869;BME280;7004;48.206;16.402;2023-01-31T09:52:03;100171.13;;;5.68;64.66
13869;BME280;7004;48.206;16.402;2023-01-31T09:54:36;100179.22;;;5.62;64.57
13869;BME280;7004;48.206;16.402;2023-01-31T09:57:15;100180.75;;;5.68;64.42
13869;BME280;7004;48.206;16.402;2023-01-31T10:02:48;100169.78;;;5.57;63.75
13869;BME280;7004;48.206;16.402;2023-01-31T10:10:59;100163.84;;;5.77;63.95
13869;BME280;7004;48.206;16.402;2023-01-31T10:13:47;100170.44;;;5.38;63.94
13869;BME280;7004;48.206;16.402;2023-01-31T10:16:37;100165.41;;;5.81;62.08
13869;BME280;7004;48.206;16.402;2023-01-31T10:19:14;100169.53;;;5.88;60.80
13869;BME280;7004;48.206;16.402;2023-01-31T10:21:47;100164.94;;;6.18;59.95
13869;BME280;7004;48.206;16.402;2023-01-31T10:24:33;100158.34;;;6.08;61.22
13869;BME280;7004;48.206;16.402;2023-01-31T10:27:41;100159.34;;;6.04;58.51
13869;BME280;7004;48.206;16.402;2023-01-31T10:30:19;100157.72;;;6.47;58.08
13869;BME280;7004;48.206;16.402;2023-01-31T10:32:52;100157.00;;;6.20;58.36
13869;BME280;7004;48.206;16.402;2023-01-31T10:35:34;100162.06;;;6.02;58.50
13869;BME280;7004;48.206;16.402;2023-01-31T10:38:30;100157.88;;;6.20;58.83
13869;BME280;7004;48.206;16.402;2023-01-31T10:41:29;100158.72;;;6.43;57.43
13869;BME280;7004;48.206;16.402;2023-01-31T10:44:02;100153.94;;;6.08;57.31
13869;BME280;7004;48.206;16.402;2023-01-31T10:46:31;100149.03;;;6.23;56.27
13869;BME280;7004;48.206;16.402;2023-01-31T10:48:57;100140.78;;;6.32;56.48
13869;BME280;7004;48.206;16.402;2023-01-31T10:51:49;100148.59;;;6.55;56.01
13869;BME280;7004;48.206;16.402;2023-01-31T10:54:32;100140.31;;;6.87;55.49
13869;BME280;7004;48.206;16.402;2023-01-31T10:57:00;100136.38;;;6.97;55.02
13869;BME280;7004;48.206;16.402;2023-01-31T11:02:01;100131.19;;;6.75;55.21
13869;BME280;7004;48.206;16.402;2023-01-31T11:04:41;100134.19;;;6.44;56.22
13869;BME280;7004;48.206;16.402;2023-01-31T11:07:09;100127.94;;;6.90;55.01
13869;BME280;7004;48.206;16.402;2023-01-31T11:09:45;100120.22;;;6.86;55.09
13869;BME280;7004;48.206;16.402;2023-01-31T11:12:12;100124.97;;;6.98;54.36
13869;BME280;7004;48.206;16.402;2023-01-31T11:14:38;100121.66;;;6.72;54.29
13869;BME280;7004;48.206;16.402;2023-01-31T11:17:16;100111.59;;;6.82;54.28
13869;BME280;7004;48.206;16.402;2023-01-31T11:19:51;100096.69;;;7.23;53.17
13869;BME280;7004;48.206;16.402;2023-01-31T11:22:30;100110.03;;;6.56;53.93
13869;BME280;7004;48.206;16.402;2023-01-31T11:24:59;100118.22;;;6.48;53.89
13869;BME280;7004;48.206;16.402;2023-01-31T11:27:37;100103.28;;;6.93;52.85
13869;BME280;7004;48.206;16.402;2023-01-31T11:30:16;100096.81;;;7.00;51.36
13869;BME280;7004;48.206;16.402;2023-01-31T11:32:44;100088.22;;;6.76;51.17
13869;BME280;7004;48.206;16.402;2023-01-31T11:40:38;100083.03;;;7.15;50.06
13869;BME280;7004;48.206;16.402;2023-01-31T11:43:26;100094.06;;;7.23;49.53
13869;BME280;7004;48.206;16.402;2023-01-31T11:46:00;100080.06;;;7.23;50.35
13869;BME280;7004;48.206;16.402;2023-01-31T11:48:42;100095.91;;;6.81;52.41
13869;BME280;7004;48.206;16.402;2023-01-31T11:51:09;100090.41;;;7.07;53.00
13869;BME280;7004;48.206;16.402;2023-01-31T11:53:47;100087.94;;;7.23;53.04
13869;BME280;7004;48.206;16.402;2023-01-31T11:56:29;100085.19;;;7.65;51.13
13869;BME280;7004;48.206;16.402;2023-01-31T11:59:03;100081.38;;;8.28;50.95
13869;BME280;7004;48.206;16.402;2023-01-31T12:01:35;100093.22;;;8.56;49.95
13869;BME280;7004;48.206;16.402;2023-01-31T12:04:17;100087.03;;;7.44;52.12
13869;BME280;7004;48.206;16.402;2023-01-31T12:06:58;100103.47;;;8.06;50.21
13869;BME280;7004;48.206;16.402;2023-01-31T12:09:29;100107.00;;;7.08;52.88
13869;BME280;7004;48.206;16.402;2023-01-31T12:12:02;100087.59;;;7.51;53.28
13869;BME280;7004;48.206;16.402;2023-01-31T12:14:41;100094.81;;;7.46;53.27
13869;BME280;7004;48.206;16.402;2023-01-31T12:17:14;100087.81;;;7.26;53.94
13869;BME280;7004;48.206;16.402;2023-01-31T12:20:20;100103.94;;;6.98;54.37
13869;BME280;7004;48.206;16.402;2023-01-31T12:36:21;100099.25;;;6.84;55.65
13869;BME280;7004;48.206;16.402;2023-01-31T12:47:54;100095.16;;;6.77;56.19
13869;BME280;7004;48.206;16.402;2023-01-31T12:50:29;100084.28;;;7.27;55.50
13869;BME280;7004;48.206;16.402;2023-01-31T13:04:54;100084.75;;;6.75;56.08
13869;BME280;7004;48.206;16.402;2023-01-31T13:07:47;100076.59;;;6.82;54.96
13869;BME280;7004;48.206;16.402;2023-01-31T13:12:56;100068.13;;;6.95;54.57
13869;BME280;7004;48.206;16.402;2023-01-31T13:18:31;100070.03;;;6.92;53.81
13869;BME280;7004;48.206;16.402;2023-01-31T13:21:06;100077.06;;;6.91;53.83
13869;BME280;7004;48.206;16.402;2023-01-31T13:23:43;100066.53;;;6.91;53.41
13869;BME280;7004;48.206;16.402;2023-01-31T13:26:42;100063.38;;;6.63;54.37
13869;BME280;7004;48.206;16.402;2023-01-31T13:29:36;100074.47;;;7.31;51.97
13869;BME280;7004;48.206;16.402;2023-01-31T13:35:22;100063.63;;;6.97;53.21
13869;BME280;7004;48.206;16.402;2023-01-31T13:37:56;100066.06;;;6.82;53.17
13869;BME280;7004;48.206;16.402;2023-01-31T13:40:31;100069.97;;;6.73;53.03
13869;BME280;7004;48.206;16.402;2023-01-31T13:43:13;100059.69;;;7.08;51.94
13869;BME280;7004;48.206;16.402;2023-01-31T13:45:56;100054.25;;;6.92;52.50
13869;BME280;7004;48.206;16.402;2023-01-31T13:51:22;100067.22;;;6.96;51.92
13869;BME280;7004;48.206;16.402;2023-01-31T13:53:58;100056.03;;;6.91;52.18
13869;BME280;7004;48.206;16.402;2023-01-31T13:56:31;100052.28;;;6.97;51.93
13869;BME280;7004;48.206;16.402;2023-01-31T13:59:00;100066.06;;;6.61;52.36
13869;BME280;7004;48.206;16.402;2023-01-31T14:01:31;100069.63;;;6.60;52.82
13869;BME280;7004;48.206;16.402;2023-01-31T14:07:16;100068.91;;;6.56;52.96
13869;BME280;7004;48.206;16.402;2023-01-31T14:09:45;100043.72;;;7.12;51.53
13869;BME280;7004;48.206;16.402;2023-01-31T14:12:35;100041.97;;;6.92;52.25
13869;BME280;7004;48.206;16.402;2023-01-31T14:15:48;100045.34;;;6.96;52.64
13869;BME280;7004;48.206;16.402;2023-01-31T14:18:38;100053.59;;;6.66;53.13
13869;BME280;7004;48.206;16.402;2023-01-31T14:23:59;100041.72;;;6.78;52.24
13869;BME280;7004;48.206;16.402;2023-01-31T14:26:51;100030.06;;;7.04;51.42
13869;BME280;7004;48.206;16.402;2023-01-31T14:29:25;100042.56;;;6.58;52.10
13869;BME280;7004;48.206;16.402;2023-01-31T14:31:53;100033.13;;;6.32;52.17
13869;BME280;7004;48.206;16.402;2023-01-31T14:34:24;100033.44;;;6.67;51.96
13869;BME280;7004;48.206;16.402;2023-01-31T14:39:51;100022.47;;;6.57;51.38
13869;BME280;7004;48.206;16.402;2023-01-31T14:45:21;100021.34;;;6.63;52.17
13869;BME280;7004;48.206;16.402;2023-01-31T14:48:28;100033.69;;;6.61;51.54
13869;BME280;7004;48.206;16.402;2023-01-31T14:51:24;100024.03;;;7.02;50.37
13869;BME280;7004;48.206;16.402;2023-01-31T15:00:51;100021.34;;;6.83;50.46
13869;BME280;7004;48.206;16.402;2023-01-31T15:13:54;100006.31;;;6.66;50.03
13869;BME280;7004;48.206;16.402;2023-01-31T15:16:32;100007.16;;;6.46;51.29
13869;BME280;7004;48.206;16.402;2023-01-31T15:19:13;100006.94;;;6.51;50.31
13869;BME280;7004;48.206;16.402;2023-01-31T15:21:58;100006.22;;;6.27;51.21
13869;BME280;7004;48.206;16.402;2023-01-31T15:24:38;100019.88;;;6.35;51.82
13869;BME280;7004;48.206;16.402;2023-01-31T15:27:27;100008.66;;;6.31;51.19
13869;BME280;7004;48.206;16.402;2023-01-31T15:30:16;100031.97;;;6.39;51.49
13869;BME280;7004;48.206;16.402;2023-01-31T15:33:28;100004.19;;;6.33;52.30
13869;BME280;7004;48.206;16.402;2023-01-31T15:38:59;100013.00;;;6.73;51.48